Olympia, WA

3:42 PM PST on February 23, 2017 (GMT -0800)
| | Change Station

Elev -9999 ft 0.00 °N, 0.00 °E | Updated 1 minute ago

Overcast
Overcast
°F
Feels Like °F
N
Wind Variable Wind from North
Gusts mph

Today
High -- | Low -- °F
--% Chance of Precip.
Yesterday
High -- | Low -- °F
Precip. -- in
Pressure 30.24 in
Visibility 10.0 miles
Clouds Scattered Clouds 3000 ft
Mostly Cloudy 7000 ft
Dew Point Not available.
Humidity Not available.
Rainfall --
Snow Depth Not available.
7:02 AM 5:49 PM
Waning Crescent, 8% visible
METAR KOLM 232254Z 00000KT 10SM -RA SCT030TCU BKN070 06/M01 A3023 RMK AO2 RAB52 SLP238 P0000 T00611006
Pressure 30.24 in
Visibility 10.0 miles
Clouds Scattered Clouds 3000 ft
Mostly Cloudy 7000 ft
Dew Point Not available.
Humidity Not available.
Rainfall --
Snow Depth Not available.
7:02 AM 5:49 PM
Waning Crescent, 8% visible
METAR KOLM 232254Z 00000KT 10SM -RA SCT030TCU BKN070 06/M01 A3023 RMK AO2 RAB52 SLP238 P0000 T00611006

Get Your Daily Forecast Email!

Thanks for signing up!

Be on the lookout for a verification email in your inbox.

You'll start receiving the daily forecast at 8 AM.

×

10-Day Weather Forecast

Almanac

Astronomy

Feb. 23, 2017 Rise Set
Actual Time
Civil Twilight
Nautical Twilight
Astronomical Twilight
Moon
Length of Visible Light
Length of Day
Tomorrow will be .
, % of the Moon is Illuminated

Today's Extremes

State Highs State Lows

Community

WunderPhotos

Upload Photos

1,962,540 photos uploaded!

WunderBlog® & News

Nearby

Air Quality

  Air Quality AQ Index Pollutant
Not available.

Snow Depth

Station Depth Elevation

Earthquake Activity

City Distance Mag. Time & Date
Minimum magnitude displayed is 2.5.

Coastal Water Temperatures

Place Temperature

Stations

Nearby Weather Stations

Station Location Temp. Windchill Dew Point Humidity Wind Precip. Elev Updated Type
                   

Watches & Warnings

There are currently no watches in effect.